Time;durP1;ratioP1;P1;durP2;ratioP2;P2;SDS_P1;SDS_P2;PMS_P1;PMS_P2;Temp;Humidity;BMP_temperature;BMP_pressure;BME280_temperature;BME280_humidity;BME280_pressure;Samples;Min_cycle;Max_cycle;Signal;HPM_P1;HPM_P2
2021/12/02 00:01:14;;;;;;;;;37.75;34.25;;;;;15.00;47.26;96211.41;4895816;28;102605;-83
2021/12/02 00:03:42;;;;;;;;;32.75;29.75;;;;;14.99;47.14;96207.88;4883294;28;105142;-83
2021/12/02 00:06:11;;;;;;;;;37.75;33.00;;;;;14.97;46.76;96220.97;4885888;28;102701;-83
2021/12/02 00:08:38;;;;;;;;;35.50;31.25;;;;;14.95;46.92;96209.53;4878077;28;104578;-83
2021/12/02 00:11:05;;;;;;;;;44.00;33.25;;;;;14.97;47.11;96201.91;4875691;28;102662;-83
2021/12/02 00:13:55;;;;;;;;;34.25;32.00;;;;;14.99;46.98;96202.44;4888262;28;102290;-82
2021/12/02 00:21:24;;;;;;;;;37.00;32.75;;;;;14.97;46.54;96193.75;4883935;28;102685;-83
2021/12/02 00:24:11;;;;;;;;;30.50;28.75;;;;;14.95;46.82;96190.50;4897625;28;102547;-83
2021/12/02 00:26:39;;;;;;;;;33.00;30.00;;;;;14.97;46.95;96203.81;4894079;28;103762;-83
2021/12/02 00:29:08;;;;;;;;;32.00;28.50;;;;;14.96;47.28;96204.91;4882245;28;104293;-83
2021/12/02 00:31:37;;;;;;;;;30.25;28.50;;;;;14.95;46.97;96201.38;4878208;28;104644;-82
2021/12/02 00:34:06;;;;;;;;;30.50;28.25;;;;;14.92;47.10;96201.97;4886876;28;104310;-82
2021/12/02 00:36:34;;;;;;;;;29.75;28.00;;;;;14.91;47.00;96216.66;4887425;28;102262;-82
2021/12/02 00:39:10;;;;;;;;;31.25;27.00;;;;;14.90;47.32;96209.63;4893247;28;104071;-82
2021/12/02 00:41:37;;;;;;;;;30.25;29.00;;;;;14.87;46.88;96210.16;4893863;28;102865;-83
2021/12/02 00:44:05;;;;;;;;;31.50;27.00;;;;;14.87;47.09;96204.72;4883803;28;102936;-83
2021/12/02 00:46:33;;;;;;;;;28.00;26.25;;;;;14.84;46.90;96204.50;4892390;28;103824;-83
2021/12/02 00:49:04;;;;;;;;;26.50;25.00;;;;;14.85;47.03;96206.13;4899927;28;104009;-83
2021/12/02 00:51:32;;;;;;;;;27.25;25.00;;;;;14.84;46.95;96209.94;4898341;28;102731;-82
2021/12/02 00:54:01;;;;;;;;;26.50;25.00;;;;;14.85;47.23;96212.38;4887123;28;102442;-83
2021/12/02 00:56:28;;;;;;;;;34.25;27.50;;;;;14.84;47.03;96196.31;4908865;28;102899;-83
2021/12/02 00:58:55;;;;;;;;;25.25;24.75;;;;;14.87;46.78;96212.88;4893575;28;104406;-82
2021/12/02 01:01:26;;;;;;;;;28.50;25.25;;;;;14.85;47.03;96211.56;4885497;28;102603;-82
2021/12/02 01:03:56;;;;;;;;;25.50;23.75;;;;;14.85;46.65;96217.81;4877523;28;103196;-82
2021/12/02 01:06:24;;;;;;;;;28.25;23.25;;;;;14.86;46.57;96213.97;4884409;28;102986;-82
2021/12/02 01:08:51;;;;;;;;;29.75;25.25;;;;;14.86;46.97;96219.41;4886066;28;104250;-82
2021/12/02 01:11:18;;;;;;;;;26.00;23.25;;;;;14.87;46.48;96218.31;4897819;28;103539;-81
2021/12/02 01:13:46;;;;;;;;;30.75;25.75;;;;;14.83;46.94;96220.00;4910025;28;102295;-82
2021/12/02 01:16:13;;;;;;;;;25.00;24.50;;;;;14.84;46.88;96226.25;4903918;28;102612;-82
2021/12/02 01:18:41;;;;;;;;;24.00;21.50;;;;;14.79;46.54;96212.69;4899816;28;104127;-82
2021/12/02 01:21:12;;;;;;;;;22.00;21.25;;;;;14.80;47.04;96212.41;4903032;28;102635;-82
2021/12/02 01:23:39;;;;;;;;;24.75;21.50;;;;;14.79;47.00;96213.50;4881705;28;102540;-82
2021/12/02 01:26:07;;;;;;;;;23.50;22.00;;;;;14.79;47.23;96205.34;4890466;28;103789;-82
2021/12/02 01:28:35;;;;;;;;;25.75;21.75;;;;;14.77;47.00;96204.81;4918327;28;103838;-82
2021/12/02 01:31:02;;;;;;;;;22.75;21.25;;;;;14.75;46.69;96209.75;4896676;28;102610;-83
2021/12/02 01:33:29;;;;;;;;;21.00;19.25;;;;;14.74;47.04;96200.78;4908227;28;102177;-82
2021/12/02 01:35:58;;;;;;;;;21.25;20.50;;;;;14.73;47.14;96203.75;4903422;28;102522;-83
2021/12/02 01:38:26;;;;;;;;;23.50;22.00;;;;;14.76;47.09;96207.84;4892292;28;104113;-82
2021/12/02 01:40:56;;;;;;;;;23.75;19.75;;;;;14.75;47.15;96204.31;4890194;28;106521;-83
2021/12/02 01:43:46;;;;;;;;;23.75;21.00;;;;;14.75;46.89;96196.13;4911763;28;104767;-82
2021/12/02 01:46:18;;;;;;;;;22.75;20.00;;;;;14.77;46.52;96202.09;4903140;28;102645;-83
2021/12/02 01:49:05;;;;;;;;;22.00;19.75;;;;;14.76;46.82;96191.50;4886548;28;110104;-82
2021/12/02 01:51:40;;;;;;;;;22.00;18.25;;;;;14.75;46.61;96185.25;4901658;28;103467;-83
2021/12/02 01:54:15;;;;;;;;;21.50;20.50;;;;;14.75;46.50;96201.59;4915130;28;103121;-83
2021/12/02 01:56:47;;;;;;;;;23.75;20.00;;;;;14.74;46.61;96191.78;4909066;28;102630;-83
2021/12/02 01:59:22;;;;;;;;;14.50;13.00;;;;;14.73;46.77;96203.75;4905258;28;109270;-83
2021/12/02 02:01:51;;;;;;;;;21.25;18.50;;;;;14.72;46.74;96205.66;4875438;28;102290;-82
2021/12/02 02:04:19;;;;;;;;;20.50;17.75;;;;;14.70;46.81;96209.78;4905737;28;104122;-83
2021/12/02 02:06:59;;;;;;;;;19.00;17.25;;;;;14.70;46.64;96205.16;4857850;28;103683;-83
2021/12/02 02:09:30;;;;;;;;;20.00;16.75;;;;;14.70;46.93;96210.59;4870851;28;108529;-83
2021/12/02 02:11:58;;;;;;;;;18.50;16.75;;;;;14.69;46.79;96219.84;4859572;28;102679;-82
2021/12/02 02:14:26;;;;;;;;;17.25;15.25;;;;;14.69;47.07;96213.59;4864320;28;105849;-82
2021/12/02 02:16:54;;;;;;;;;22.00;18.50;;;;;14.67;47.10;96222.06;4894674;28;103291;-82
2021/12/02 02:19:21;;;;;;;;;15.00;15.00;;;;;14.65;46.68;96221.53;4895098;28;104408;-82
2021/12/02 02:21:49;;;;;;;;;14.50;13.50;;;;;14.66;46.63;96225.06;4910766;28;104986;-82
2021/12/02 02:24:17;;;;;;;;;15.75;14.50;;;;;14.64;46.84;96228.03;4907754;28;102792;-82
2021/12/02 02:26:44;;;;;;;;;20.00;17.25;;;;;14.66;46.81;96222.34;4897407;28;105179;-83
2021/12/02 02:29:12;;;;;;;;;17.75;14.75;;;;;14.66;46.72;96230.50;4895895;28;104718;-83
2021/12/02 02:31:41;;;;;;;;;16.00;15.00;;;;;14.66;46.60;96225.06;4907788;28;105319;-83
2021/12/02 02:34:09;;;;;;;;;16.00;15.50;;;;;14.66;46.64;96238.66;4917453;28;102715;-83
2021/12/02 02:36:38;;;;;;;;;17.50;14.50;;;;;14.66;46.91;96225.88;4899154;28;102598;-82
2021/12/02 02:39:05;;;;;;;;;15.00;15.00;;;;;14.66;46.57;96231.31;4896197;28;104314;-83
2021/12/02 02:41:40;;;;;;;;;14.50;14.00;;;;;14.65;46.75;96231.59;4913301;28;102658;-83
2021/12/02 02:44:08;;;;;;;;;19.50;17.50;;;;;14.64;46.77;96228.03;4878806;28;102833;-83
2021/12/02 02:46:41;;;;;;;;;14.75;14.25;;;;;14.64;46.83;96243.56;4888355;28;102497;-83
2021/12/02 02:49:11;;;;;;;;;17.50;16.00;;;;;14.63;46.62;96241.94;4914225;28;104041;-82
2021/12/02 02:51:39;;;;;;;;;18.50;13.50;;;;;14.60;46.94;96237.88;4896033;28;102769;-83
2021/12/02 02:54:08;;;;;;;;;17.75;16.25;;;;;14.60;47.03;96254.19;4892683;28;103160;-83
2021/12/02 02:56:39;;;;;;;;;15.50;13.75;;;;;14.57;46.55;96237.63;4909671;28;102739;-83
2021/12/02 02:59:23;;;;;;;;;13.25;12.25;;;;;14.57;46.55;96241.16;4898591;28;106044;-82
2021/12/02 03:07:30;;;;;;;;;21.25;17.25;;;;;14.56;46.69;96246.88;4910175;28;102506;-83
2021/12/02 03:10:04;;;;;;;;;11.75;11.50;;;;;14.56;46.83;96242.25;4896054;28;109477;-83
2021/12/02 03:12:37;;;;;;;;;17.00;14.75;;;;;14.56;46.71;96236.81;4908631;28;105261;-83
2021/12/02 03:17:32;;;;;;;;;10.00;10.00;;;;;14.58;46.68;96252.88;4920049;28;102637;-83
2021/12/02 03:19:59;;;;;;;;;12.50;12.00;;;;;14.58;46.40;96247.44;4899594;28;104718;-83
2021/12/02 03:22:26;;;;;;;;;14.50;12.75;;;;;14.57;46.38;96252.06;4913696;28;104353;-83
2021/12/02 03:24:53;;;;;;;;;13.25;12.50;;;;;14.58;46.44;96250.16;4915753;28;102850;-82
2021/12/02 03:27:20;;;;;;;;;11.25;10.75;;;;;14.57;46.91;96245.78;4907627;28;102647;-83
2021/12/02 03:29:47;;;;;;;;;10.50;10.25;;;;;14.58;46.75;96242.00;4891887;28;109149;-83
2021/12/02 03:32:14;;;;;;;;;14.25;13.00;;;;;14.58;46.63;96242.00;4922463;28;102539;-83
2021/12/02 03:34:41;;;;;;;;;11.75;11.50;;;;;14.55;46.90;96235.19;4908998;28;103886;-83
2021/12/02 03:37:09;;;;;;;;;12.75;11.75;;;;;14.58;46.51;96250.16;4906668;28;102507;-83
2021/12/02 03:39:36;;;;;;;;;12.25;11.00;;;;;14.55;46.47;96231.66;4913218;28;105144;-83
2021/12/02 03:42:04;;;;;;;;;13.00;10.50;;;;;14.56;46.75;96242.25;4887434;28;103018;-83
2021/12/02 03:44:31;;;;;;;;;12.25;12.00;;;;;14.54;46.48;96243.66;4888779;28;102779;-83
2021/12/02 03:46:58;;;;;;;;;12.75;11.75;;;;;14.54;46.67;96244.47;4915691;28;102764;-83
2021/12/02 03:49:25;;;;;;;;;12.75;11.75;;;;;14.53;46.81;96236.59;4904046;28;104462;-82
2021/12/02 03:51:52;;;;;;;;;12.00;10.75;;;;;14.54;46.90;96249.09;4909794;28;103559;-82
2021/12/02 03:54:19;;;;;;;;;11.00;9.25;;;;;14.55;46.42;96245.25;4893144;28;102735;-83
2021/12/02 03:56:47;;;;;;;;;12.75;11.00;;;;;14.54;46.62;96249.09;4899523;28;103664;-83
2021/12/02 03:59:14;;;;;;;;;11.75;10.25;;;;;14.54;46.33;96254.53;4917735;28;103989;-83
2021/12/02 04:01:41;;;;;;;;;11.75;9.75;;;;;14.55;46.56;96261.56;4910731;28;104668;-83
2021/12/02 04:04:08;;;;;;;;;8.00;8.00;;;;;14.56;46.10;96263.19;4904846;28;102732;-83
2021/12/02 04:06:35;;;;;;;;;7.50;7.00;;;;;14.55;46.75;96267.00;4893507;28;102960;-83
2021/12/02 04:09:12;;;;;;;;;11.75;10.00;;;;;14.54;46.57;96255.34;4903709;28;104190;-83
2021/12/02 04:11:59;;;;;;;;;7.75;7.50;;;;;14.57;46.46;96264.84;4899320;28;103516;-83
2021/12/02 04:14:31;;;;;;;;;10.50;8.50;;;;;14.55;46.96;96270.53;4894302;28;102838;-83
2021/12/02 04:17:02;;;;;;;;;9.50;7.25;;;;;14.55;46.62;96267.00;4905132;28;103098;-82
2021/12/02 04:19:29;;;;;;;;;11.25;10.00;;;;;14.54;46.92;96270.84;4893726;28;103739;-82
2021/12/02 04:21:58;;;;;;;;;10.00;10.00;;;;;14.55;47.00;96275.16;4904605;28;103160;-82
2021/12/02 04:24:25;;;;;;;;;10.50;8.00;;;;;14.53;46.72;96274.66;4901038;28;102912;-82
2021/12/02 04:26:52;;;;;;;;;9.75;9.00;;;;;14.50;46.45;96272.50;4892337;28;103061;-82
2021/12/02 04:29:19;;;;;;;;;8.00;8.00;;;;;14.49;46.55;96279.03;4892134;28;104242;-83
2021/12/02 04:31:47;;;;;;;;;10.75;8.00;;;;;14.48;46.97;96277.41;4916924;28;102378;-83
2021/12/02 04:34:14;;;;;;;;;10.00;7.00;;;;;14.48;46.94;96282.84;4905220;28;102586;-82
2021/12/02 04:36:42;;;;;;;;;5.50;5.25;;;;;14.47;47.04;96283.94;4887633;28;103982;-82
2021/12/02 04:39:09;;;;;;;;;8.00;7.00;;;;;14.45;46.78;96295.09;4918255;28;104051;-83
2021/12/02 04:41:36;;;;;;;;;9.00;7.75;;;;;14.45;47.13;96291.56;4903470;28;102670;-82
2021/12/02 04:44:04;;;;;;;;;8.75;7.00;;;;;14.47;46.33;96300.25;4907404;28;102504;-83
2021/12/02 04:46:31;;;;;;;;;8.25;7.00;;;;;14.46;46.48;96299.44;4909803;28;102599;-83
2021/12/02 04:48:58;;;;;;;;;7.50;7.00;;;;;14.46;46.97;96312.22;4887666;28;104316;-83
2021/12/02 04:51:26;;;;;;;;;8.00;6.00;;;;;14.47;46.74;96308.41;4904718;28;105130;-82
2021/12/02 04:53:53;;;;;;;;;7.50;7.25;;;;;14.46;46.40;96306.78;4928009;28;102461;-82
2021/12/02 04:56:20;;;;;;;;;7.00;6.25;;;;;14.46;46.68;96312.22;4906330;28;103869;-82
2021/12/02 04:58:47;;;;;;;;;10.00;8.25;;;;;14.46;46.47;96312.22;4901436;28;109602;-82
2021/12/02 05:01:14;;;;;;;;;10.50;6.50;;;;;14.44;46.32;96315.22;4918160;28;102592;-83
2021/12/02 05:03:41;;;;;;;;;10.00;6.75;;;;;14.44;47.01;96314.41;4907148;28;102677;-83
2021/12/02 05:06:13;;;;;;;;;7.00;6.00;;;;;14.43;46.45;96310.06;4897864;28;104719;-83
2021/12/02 05:08:40;;;;;;;;;8.00;7.00;;;;;14.41;46.20;96310.34;4921726;28;104195;-82
2021/12/02 05:11:07;;;;;;;;;7.00;6.50;;;;;14.41;46.91;96323.16;4900846;28;102614;-82
2021/12/02 05:13:34;;;;;;;;;9.00;8.25;;;;;14.42;46.67;96322.03;4887283;28;102690;-83
2021/12/02 05:16:01;;;;;;;;;7.50;7.00;;;;;14.41;46.36;96315.78;4900482;28;102480;-83
2021/12/02 05:18:28;;;;;;;;;8.50;6.25;;;;;14.42;46.56;96306.53;4889178;28;104385;-82
2021/12/02 05:20:57;;;;;;;;;9.00;7.00;;;;;14.41;46.82;96302.19;4881200;28;102612;-82
2021/12/02 05:23:24;;;;;;;;;6.00;6.00;;;;;14.40;46.75;96302.47;4898057;28;102134;-82
2021/12/02 05:25:51;;;;;;;;;6.50;6.25;;;;;14.40;46.59;96297.03;4897063;28;102629;-83
2021/12/02 05:28:18;;;;;;;;;9.75;7.00;;;;;14.41;46.54;96320.44;4884973;28;108719;-82
2021/12/02 05:30:46;;;;;;;;;6.00;5.25;;;;;14.42;46.47;96311.16;4885018;28;103502;-83
2021/12/02 05:33:13;;;;;;;;;7.50;6.00;;;;;14.43;46.63;96312.78;4880968;28;102565;-83
2021/12/02 05:35:41;;;;;;;;;6.00;6.00;;;;;14.42;46.62;96311.97;4892421;28;102689;-83
2021/12/02 05:38:08;;;;;;;;;5.00;4.25;;;;;14.41;46.29;96304.13;4902009;28;104393;-83
2021/12/02 05:40:35;;;;;;;;;6.75;5.50;;;;;14.38;46.53;96308.19;4885583;28;102740;-82
2021/12/02 05:43:02;;;;;;;;;5.00;5.00;;;;;14.41;46.92;96304.13;4890065;28;102380;-83
2021/12/02 05:45:29;;;;;;;;;5.25;5.00;;;;;14.45;46.95;96316.03;4910867;28;102520;-82
2021/12/02 05:47:57;;;;;;;;;4.00;4.00;;;;;14.45;46.76;96316.88;4893257;28;105580;-83
2021/12/02 05:50:24;;;;;;;;;4.25;3.75;;;;;14.48;46.49;96310.03;4893084;28;102514;-82
2021/12/02 05:52:51;;;;;;;;;10.00;6.00;;;;;14.50;46.36;96313.31;4907953;28;102633;-83
2021/12/02 05:55:19;;;;;;;;;6.00;5.75;;;;;14.54;46.69;96317.91;4895453;28;102664;-83
2021/12/02 05:57:46;;;;;;;;;4.25;4.00;;;;;14.56;46.41;96323.03;4899535;28;104340;-83
2021/12/02 06:00:14;;;;;;;;;5.00;4.25;;;;;14.59;46.36;96322.50;4899639;28;103474;-82
2021/12/02 06:02:42;;;;;;;;;5.25;5.00;;;;;14.61;46.41;96323.00;4903058;28;102346;-83
2021/12/02 06:05:09;;;;;;;;;5.75;5.00;;;;;14.62;46.39;96327.34;4897072;28;102647;-82
2021/12/02 06:07:37;;;;;;;;;2.75;2.75;;;;;14.64;46.32;96334.13;4911953;28;104242;-82
2021/12/02 06:10:05;;;;;;;;;5.50;5.00;;;;;14.65;46.58;96337.66;4898341;28;102716;-82
2021/12/02 06:12:32;;;;;;;;;4.25;3.25;;;;;14.67;46.32;96340.94;4908244;28;102563;-82
2021/12/02 06:14:59;;;;;;;;;4.50;4.50;;;;;14.70;46.46;96345.78;4905520;28;102700;-82
2021/12/02 06:17:26;;;;;;;;;4.75;4.00;;;;;14.70;46.22;96349.31;4924934;28;104056;-82
2021/12/02 06:19:53;;;;;;;;;3.50;3.50;;;;;14.71;46.68;96352.88;4918199;28;102518;-82
2021/12/02 06:22:20;;;;;;;;;4.75;4.75;;;;;14.73;46.54;96364.25;4934442;28;102563;-82
2021/12/02 06:24:54;;;;;;;;;2.00;2.00;;;;;14.73;46.24;96364.25;4920857;28;102699;-82
2021/12/02 06:27:21;;;;;;;;;5.50;5.00;;;;;14.74;46.72;96369.44;4901857;28;110214;-82
2021/12/02 06:29:48;;;;;;;;;5.00;4.25;;;;;14.74;46.10;96366.72;4923000;28;103367;-82
2021/12/02 06:32:15;;;;;;;;;5.00;4.00;;;;;14.75;46.85;96364.81;4912918;28;103441;-82
2021/12/02 06:34:42;;;;;;;;;5.50;5.00;;;;;14.76;46.53;96362.91;4881234;28;104423;-83
2021/12/02 06:37:09;;;;;;;;;5.00;4.50;;;;;14.74;46.20;96363.16;4914144;28;104017;-82
2021/12/02 06:39:36;;;;;;;;;4.75;4.75;;;;;14.75;46.42;96367.53;4903032;28;104071;-82
2021/12/02 06:42:03;;;;;;;;;5.75;5.00;;;;;14.76;46.51;96373.78;4906733;28;102441;-82
2021/12/02 06:44:32;;;;;;;;;3.00;3.00;;;;;14.75;46.27;96370.25;4911556;28;103513;-82
2021/12/02 06:46:59;;;;;;;;;5.00;4.00;;;;;14.76;46.59;96371.06;4908051;28;103346;-82
2021/12/02 06:49:27;;;;;;;;;5.00;4.25;;;;;14.77;46.51;96373.47;4896761;28;104011;-82
2021/12/02 06:51:56;;;;;;;;;4.00;4.00;;;;;14.76;46.51;96377.31;4927003;28;102915;-82
2021/12/02 06:54:23;;;;;;;;;5.00;4.00;;;;;14.77;46.71;96373.47;4920217;28;102188;-83
2021/12/02 06:56:51;;;;;;;;;4.00;4.00;;;;;14.78;46.21;96386.00;4907211;28;110143;-82
2021/12/02 06:59:18;;;;;;;;;5.00;4.00;;;;;14.77;46.57;96384.34;4914296;28;102862;-82
2021/12/02 07:01:46;;;;;;;;;5.00;3.75;;;;;14.76;46.27;96380.03;4914086;28;102542;-82
2021/12/02 07:04:13;;;;;;;;;5.25;4.75;;;;;14.76;46.73;96381.94;4913963;28;112014;-83
2021/12/02 07:06:40;;;;;;;;;4.25;4.00;;;;;14.75;46.06;96383.84;4909898;28;104234;-82
2021/12/02 07:09:07;;;;;;;;;6.75;5.25;;;;;14.76;46.61;96392.81;4907407;28;103100;-82
2021/12/02 07:11:34;;;;;;;;;4.00;3.75;;;;;14.74;46.30;96385.75;4902465;28;102786;-82
2021/12/02 07:14:07;;;;;;;;;4.00;3.00;;;;;14.74;46.46;96390.38;4912115;28;103119;-82
2021/12/02 07:16:36;;;;;;;;;5.75;5.00;;;;;14.74;46.56;96393.09;4911839;28;104241;-82
2021/12/02 07:19:07;;;;;;;;;3.25;3.00;;;;;14.73;46.79;96399.63;4898043;28;102487;-82
2021/12/02 07:21:37;;;;;;;;;3.75;3.00;;;;;14.72;46.36;96403.47;4911656;28;102555;-82
2021/12/02 07:24:05;;;;;;;;;4.00;3.25;;;;;14.73;46.58;96410.50;4911315;28;102585;-82
2021/12/02 07:26:40;;;;;;;;;4.00;4.00;;;;;14.71;46.25;96399.94;4909771;28;104112;-82
2021/12/02 07:29:10;;;;;;;;;4.00;3.50;;;;;14.71;46.52;96401.81;4913280;28;102675;-83
2021/12/02 07:31:38;;;;;;;;;4.00;3.00;;;;;14.72;46.54;96398.03;4909160;28;102200;-82
2021/12/02 07:34:05;;;;;;;;;4.50;3.00;;;;;14.71;46.37;96402.63;4920989;28;102615;-82
2021/12/02 07:36:33;;;;;;;;;4.00;3.00;;;;;14.72;46.24;96408.91;4894940;28;104273;-82
2021/12/02 07:39:01;;;;;;;;;4.00;3.00;;;;;14.72;46.29;96414.34;4922441;28;102309;-82
2021/12/02 07:41:28;;;;;;;;;4.00;3.50;;;;;14.70;46.29;96417.34;4933313;28;102175;-82
2021/12/02 07:43:55;;;;;;;;;3.25;3.25;;;;;14.70;46.46;96419.22;4906332;28;102547;-82
2021/12/02 07:46:22;;;;;;;;;5.00;3.00;;;;;14.70;46.18;96416.50;4909875;28;104055;-82
2021/12/02 07:48:49;;;;;;;;;4.00;3.50;;;;;14.72;46.46;96420.56;4928697;28;103565;-82
2021/12/02 07:51:16;;;;;;;;;4.00;3.00;;;;;14.72;46.40;96426.00;4880483;28;102723;-83
2021/12/02 07:53:45;;;;;;;;;2.00;2.00;;;;;14.72;46.65;96426.00;4910348;28;104855;-82
2021/12/02 07:56:13;;;;;;;;;4.00;4.00;;;;;14.74;46.16;96426.56;4914784;28;105074;-83
2021/12/02 07:58:42;;;;;;;;;3.50;3.50;;;;;14.76;46.38;96420.84;4913508;28;102198;-82
2021/12/02 08:01:09;;;;;;;;;3.00;3.00;;;;;14.77;46.32;96433.31;4899571;28;104017;-83
2021/12/02 08:03:43;;;;;;;;;3.00;3.00;;;;;14.79;45.94;96422.19;4909536;28;102683;-82
2021/12/02 08:06:11;;;;;;;;;2.25;2.25;;;;;14.81;46.10;96426.25;4901286;28;104419;-82
2021/12/02 08:08:38;;;;;;;;;3.00;2.00;;;;;14.84;46.36;96438.47;4908176;28;102694;-82
2021/12/02 08:11:06;;;;;;;;;3.75;3.50;;;;;14.84;46.68;96420.25;4917319;28;102135;-83
2021/12/02 08:13:33;;;;;;;;;3.25;2.25;;;;;14.88;46.19;96434.09;4917566;28;102392;-82
2021/12/02 08:16:02;;;;;;;;;3.25;3.00;;;;;14.88;46.40;96439.53;4909978;28;104163;-82
2021/12/02 08:18:29;;;;;;;;;3.00;2.00;;;;;14.90;46.57;96438.19;4915662;28;102552;-82
2021/12/02 08:20:56;;;;;;;;;3.50;3.00;;;;;14.90;46.48;96435.47;4904377;28;102215;-82
2021/12/02 08:23:23;;;;;;;;;5.25;2.50;;;;;14.93;46.15;96445.78;4911106;28;103219;-83
2021/12/02 08:25:50;;;;;;;;;3.00;2.00;;;;;14.93;46.33;96439.50;4913354;28;109153;-82
2021/12/02 08:28:17;;;;;;;;;3.25;2.50;;;;;14.93;46.37;96440.31;4910839;28;103693;-82
2021/12/02 08:30:44;;;;;;;;;3.00;3.00;;;;;14.94;45.97;96438.41;4899812;28;104232;-83
2021/12/02 08:33:13;;;;;;;;;3.00;2.00;;;;;14.95;46.04;96449.00;4921421;28;103288;-82
2021/12/02 08:35:41;;;;;;;;;3.50;3.25;;;;;14.97;46.02;96448.72;4911641;28;104168;-82
2021/12/02 08:38:10;;;;;;;;;3.75;3.00;;;;;14.96;46.36;96442.47;4903400;28;102696;-82
2021/12/02 08:40:38;;;;;;;;;2.00;2.00;;;;;14.97;46.08;96444.13;4914362;28;102489;-82
2021/12/02 08:43:07;;;;;;;;;2.25;1.50;;;;;14.96;45.98;96447.91;4915428;28;103146;-82
2021/12/02 08:45:34;;;;;;;;;2.00;2.00;;;;;14.96;46.45;96450.63;4881174;28;103997;-82
2021/12/02 08:48:02;;;;;;;;;3.75;2.00;;;;;14.96;45.94;96461.53;4901085;28;102466;-82
2021/12/02 08:50:29;;;;;;;;;2.00;2.00;;;;;14.95;46.18;96478.16;4913114;28;102530;-82
2021/12/02 08:52:56;;;;;;;;;2.00;2.00;;;;;14.96;46.45;96486.03;4903205;28;102656;-82
2021/12/02 08:55:24;;;;;;;;;3.00;3.00;;;;;14.96;46.07;96480.56;4907556;28;104302;-83
2021/12/02 08:57:52;;;;;;;;;2.25;2.25;;;;;14.96;46.25;96486.03;4912477;28;102462;-83
2021/12/02 09:00:21;;;;;;;;;2.50;2.00;;;;;14.97;46.25;96493.09;4901375;28;102522;-83
2021/12/02 09:02:48;;;;;;;;;3.00;2.00;;;;;14.97;46.33;96486.84;4894164;28;104735;-83
2021/12/02 09:05:16;;;;;;;;;2.25;1.50;;;;;14.97;46.28;96484.13;4893507;28;104395;-82
2021/12/02 09:07:43;;;;;;;;;2.25;2.00;;;;;14.97;46.42;96492.28;4914545;28;102431;-82
2021/12/02 09:10:30;;;;;;;;;2.25;2.25;;;;;14.97;46.28;96484.13;4908765;28;104457;-82
2021/12/02 09:12:57;;;;;;;;;2.50;2.00;;;;;14.97;46.42;96487.66;4919952;28;102623;-82
2021/12/02 09:15:24;;;;;;;;;3.00;2.00;;;;;14.96;46.21;96496.91;4904222;28;103935;-82
2021/12/02 09:17:54;;;;;;;;;5.25;1.25;;;;;14.98;46.37;96504.81;4901127;28;102518;-83
2021/12/02 09:20:21;;;;;;;;;2.00;1.00;;;;;14.96;46.01;96505.06;4919566;28;102629;-83
2021/12/02 09:22:48;;;;;;;;;2.00;2.00;;;;;14.96;46.06;96502.34;4921911;28;102820;-82
2021/12/02 09:25:16;;;;;;;;;2.00;2.00;;;;;14.96;46.42;96512.41;4908420;28;104120;-83
2021/12/02 09:27:44;;;;;;;;;1.25;1.25;;;;;14.96;45.90;96507.78;4908284;28;103337;-82
2021/12/02 09:30:13;;;;;;;;;2.00;2.00;;;;;14.95;46.13;96503.44;4929614;28;103938;-82
2021/12/02 09:32:40;;;;;;;;;3.25;3.00;;;;;14.94;45.88;96504.56;4901173;28;103467;-82
2021/12/02 09:35:07;;;;;;;;;2.00;2.00;;;;;14.94;46.14;96499.09;4927368;28;104025;-83
2021/12/02 09:37:34;;;;;;;;;3.00;2.00;;;;;14.94;46.26;96503.72;4928724;28;102604;-83
2021/12/02 09:40:04;;;;;;;;;3.00;2.00;;;;;14.94;46.23;96504.56;4902327;28;103132;-83
2021/12/02 09:42:31;;;;;;;;;2.00;2.00;;;;;14.94;45.98;96504.56;4921717;28;103365;-82
2021/12/02 09:45:00;;;;;;;;;2.50;2.00;;;;;14.95;45.88;96514.31;4929511;28;104275;-82
2021/12/02 09:47:33;;;;;;;;;2.50;2.00;;;;;14.95;46.22;96505.38;4911848;28;102454;-83
2021/12/02 09:50:03;;;;;;;;;3.00;3.00;;;;;14.93;46.13;96502.91;4889201;28;109744;-82
2021/12/02 09:52:35;;;;;;;;;1.50;1.50;;;;;14.93;45.98;96508.34;4928017;28;103144;-82
2021/12/02 09:55:09;;;;;;;;;2.50;1.75;;;;;14.94;46.08;96499.09;4915249;28;104186;-82
2021/12/02 09:57:40;;;;;;;;;2.25;2.00;;;;;14.94;46.24;96512.72;4910549;28;102233;-82
2021/12/02 10:00:15;;;;;;;;;2.00;1.00;;;;;14.94;45.95;96509.19;4912397;28;102088;-82
2021/12/02 10:02:51;;;;;;;;;2.00;2.00;;;;;14.93;46.08;96511.09;4924033;28;103500;-83
2021/12/02 10:05:38;;;;;;;;;2.00;2.00;;;;;14.93;46.51;96508.34;4914019;28;104117;-82
2021/12/02 10:08:08;;;;;;;;;0.75;0.75;;;;;14.94;46.06;96503.72;4895696;28;104702;-82
2021/12/02 10:10:41;;;;;;;;;2.50;2.00;;;;;14.94;45.90;96504.56;4918661;28;102319;-82
2021/12/02 10:13:21;;;;;;;;;2.00;2.00;;;;;14.94;46.32;96512.72;4898128;28;103747;-82
2021/12/02 10:16:04;;;;;;;;;2.00;2.00;;;;;14.94;46.26;96515.44;4910681;28;104250;-83
2021/12/02 10:19:10;;;;;;;;;1.00;1.00;;;;;14.97;45.88;96516.78;4891190;28;102626;-83
2021/12/02 10:21:44;;;;;;;;;2.00;2.00;;;;;14.96;46.23;96496.91;4929566;28;102613;-82
2021/12/02 10:24:16;;;;;;;;;1.00;1.00;;;;;14.98;46.33;96518.41;4903956;28;102773;-82
2021/12/02 10:26:46;;;;;;;;;3.25;1.50;;;;;15.00;46.04;96514.31;4904238;28;104287;-82
2021/12/02 10:29:27;;;;;;;;;1.50;1.50;;;;;15.02;46.24;96517.56;4899563;28;102460;-83
2021/12/02 10:32:18;;;;;;;;;1.00;1.00;;;;;15.03;45.54;96516.47;4894351;28;103332;-82
2021/12/02 10:35:03;;;;;;;;;1.75;1.25;;;;;15.03;45.57;96505.59;4901860;28;104527;-83
2021/12/02 10:37:32;;;;;;;;;1.00;1.00;;;;;15.06;46.15;96515.91;4893691;28;108922;-82
2021/12/02 10:40:07;;;;;;;;;2.00;1.00;;;;;15.08;46.09;96516.44;4922727;28;102498;-82
2021/12/02 10:42:37;;;;;;;;;1.50;1.50;;;;;15.08;46.02;96510.97;4910823;28;102605;-82
2021/12/02 10:45:29;;;;;;;;;1.00;1.00;;;;;15.08;46.37;96510.97;4895965;28;102205;-83
2021/12/02 10:47:56;;;;;;;;;2.00;1.75;;;;;15.10;46.02;96518.88;4885682;28;109220;-83
2021/12/02 10:50:24;;;;;;;;;2.50;2.00;;;;;15.12;45.67;96516.72;4917284;28;102199;-82
2021/12/02 10:52:52;;;;;;;;;1.00;1.00;;;;;15.12;45.89;96519.44;4904566;28;107274;-82
2021/12/02 10:55:22;;;;;;;;;1.00;1.00;;;;;15.14;46.00;96525.38;4887035;28;102701;-83
2021/12/02 10:57:57;;;;;;;;;1.00;1.00;;;;;15.13;45.86;96521.84;4904185;28;109011;-82
2021/12/02 11:00:25;;;;;;;;;1.75;1.75;;;;;15.13;45.96;96513.69;4908387;28;102521;-82
2021/12/02 11:02:55;;;;;;;;;1.00;1.00;;;;;15.15;45.82;96525.13;4900732;28;103021;-83
2021/12/02 11:05:32;;;;;;;;;2.00;1.00;;;;;15.15;45.89;96513.41;4919791;28;102167;-82
2021/12/02 11:08:05;;;;;;;;;1.00;1.00;;;;;15.15;45.79;96532.47;4892939;28;108835;-83
2021/12/02 11:10:36;;;;;;;;;2.00;1.25;;;;;15.17;45.77;96533.81;4903528;28;102552;-82
2021/12/02 11:13:03;;;;;;;;;2.00;1.00;;;;;15.16;45.67;96534.09;4906387;28;102948;-82
2021/12/02 11:15:32;;;;;;;;;1.25;1.00;;;;;15.17;45.73;96531.06;4917228;28;103702;-82
2021/12/02 11:18:03;;;;;;;;;2.00;1.00;;;;;15.16;45.86;96531.38;4907756;28;104043;-82
2021/12/02 11:20:32;;;;;;;;;2.00;1.75;;;;;15.15;46.14;96533.28;4898638;28;102624;-82
2021/12/02 11:23:19;;;;;;;;;1.50;1.50;;;;;15.15;45.64;96530.56;4925319;28;102500;-82
2021/12/02 11:26:01;;;;;;;;;0.50;0.50;;;;;15.16;45.59;96540.38;4910696;28;102761;-82
2021/12/02 11:28:31;;;;;;;;;2.00;1.00;;;;;15.18;45.67;96526.44;4907981;28;108938;-82
2021/12/02 11:30:59;;;;;;;;;1.50;1.50;;;;;15.15;45.67;96527.84;4908335;28;102380;-82
2021/12/02 11:33:35;;;;;;;;;2.25;1.75;;;;;15.18;45.69;96542.78;4909717;28;102693;-82
2021/12/02 11:36:04;;;;;;;;;2.00;2.00;;;;;15.17;46.03;96538.47;4906647;28;106426;-82
2021/12/02 11:38:31;;;;;;;;;1.00;1.00;;;;;15.15;45.89;96536.00;4924307;28;104096;-82
2021/12/02 11:41:00;;;;;;;;;1.00;1.00;;;;;15.15;45.65;96533.28;4911934;28;103742;-82
2021/12/02 11:43:29;;;;;;;;;1.25;1.00;;;;;15.15;45.61;96527.03;4906801;28;102428;-82